Jack Guidry — WDF2422 — position and weather

sailwx.info

Track history (hours):
 
Tides and Currents Weather Stations Pressure Air Temp Water Temp Dewpoint Dewpoint Depression Visibility Wind Speed Wind Dir Waves Ship Positions

Jack Guidry

Owner: Enterprise Marine Services, LLC, San Antonio, TX. More information available from US FCC via Universal Licensing System and Coast Guard Vessel Documentation Center.

Last reported at 2018-Apr-22 12:46 UTC. Time now 2018-Apr-22 14:41 UTC.
Position N 29°47' W 095°05'.

Length 22 m; draft 3 m.

Type: . MMSI: 367003430.

Date/timePositionNaut miles runAvg speedWind from/ knotsBaromVisibWave heightAir tempDewpointWater temp
2018-Apr-22 12:46N 29°47' W 095°05'4 0.1
2018-Apr-20 22:47N 29°44' W 095°09'1 3.5
2018-Apr-20 22:26N 29°44' W 095°08'4 0.2
2018-Apr-19 21:53N 29°47' W 095°05'0 0.0
2018-Apr-19 21:30N 29°47' W 095°05'0 0.0
2018-Apr-18 17:41N 29°47' W 095°05'1 2.8
2018-Apr-18 17:19N 29°46' W 095°05'0 0.2
2018-Apr-18 16:42N 29°46' W 095°05'0 0.3
2018-Apr-18 16:30N 29°46' W 095°05'1 0.1
2018-Apr-18 04:59N 29°47' W 095°05'0 0.0
2018-Apr-18 02:45N 29°47' W 095°05'0 0.3
2018-Apr-18 02:27N 29°47' W 095°05'0 0.1
2018-Apr-18 02:00N 29°47' W 095°05'1 1.6
2018-Apr-18 01:26N 29°47' W 095°04'2 0.2
2018-Apr-17 12:52N 29°46' W 095°06'2 4.0
2018-Apr-17 12:27N 29°47' W 095°05'0 0.2
2018-Apr-17 10:58N 29°47' W 095°05'1 1.0
2018-Apr-17 10:23N 29°46' W 095°05'3 2.7
2018-Apr-17 09:27N 29°44' W 095°03'2 4.4
2018-Apr-17 08:59N 29°43' W 095°01'2 4.8
2018-Apr-17 08:30N 29°41' W 094°59'3 5.0
2018-Apr-17 07:59N 29°39' W 094°58'3 5.3
2018-Apr-17 07:30N 29°37' W 094°57'3 5.4
2018-Apr-17 07:00N 29°34' W 094°55'3 5.3
2018-Apr-17 06:30N 29°32' W 094°54'3 4.7
2018-Apr-17 05:56N 29°30' W 094°52'2 4.5
2018-Apr-17 05:30N 29°28' W 094°51'2 4.8
2018-Apr-17 05:00N 29°26' W 094°50'2 4.4
2018-Apr-17 04:29N 29°24' W 094°49'2 2.3
2018-Apr-17 03:38N 29°22' W 094°49'1 5.2
2018-Apr-17 03:29N 29°22' W 094°50'9 0.2
2018-Apr-15 11:42N 29°31' W 094°53'1 7.3
2018-Apr-15 11:30N 29°32' W 094°54'3 6.8
2018-Apr-15 11:00N 29°35' W 094°56'3 6.1
2018-Apr-15 10:30N 29°38' W 094°58'2 4.7
2018-Apr-15 10:00N 29°40' W 094°58'9 1.0
2018-Apr-15 00:41N 29°47' W 095°05'0 0.0
2018-Apr-15 00:30N 29°47' W 095°05'0 0.0
2018-Apr-14 23:52N 29°47' W 095°05'0 0.0
2018-Apr-14 18:40N 29°47' W 095°05'0 0.1
2018-Apr-14 18:30N 29°47' W 095°05'1 0.0
2018-Apr-13 18:47N 29°47' W 095°04'0 0.0
2018-Apr-13 18:29N 29°47' W 095°04'0 0.0
2018-Apr-13 17:59N 29°47' W 095°04'0 0.0
2018-Apr-13 15:56N 29°47' W 095°04'0 0.0
2018-Apr-13 15:29N 29°47' W 095°04'0 0.0
2018-Apr-13 13:42N 29°47' W 095°04'0 0.0
2018-Apr-13 07:20N 29°47' W 095°04'0 0.0
2018-Apr-13 06:20N 29°47' W 095°04'0 0.0
2018-Apr-13 05:56N 29°47' W 095°04'0 0.0
2018-Apr-13 05:29N 29°47' W 095°04'0 0.0
2018-Apr-13 05:00N 29°47' W 095°04'0 0.0
2018-Apr-13 04:25N 29°47' W 095°04'0 0.0
2018-Apr-13 03:54N 29°47' W 095°04'0 0.0
2018-Apr-13 03:29N 29°47' W 095°04'0 0.0
2018-Apr-13 02:03N 29°47' W 095°04'0 0.0
2018-Apr-13 01:58N 29°47' W 095°04'0 0.0
2018-Apr-13 00:32N 29°47' W 095°04'0 0.0
2018-Apr-13 00:22N 29°47' W 095°04'0 0.0
2018-Apr-12 20:32N 29°47' W 095°04'0 0.1
2018-Apr-12 20:28N 29°47' W 095°04'0 0.0
2018-Apr-12 19:58N 29°47' W 095°04'0 0.0
2018-Apr-12 19:17N 29°47' W 095°04'0 0.0
2018-Apr-12 18:58N 29°47' W 095°04'0 0.0
2018-Apr-12 18:30N 29°47' W 095°04'0 0.0
2018-Apr-12 17:59N 29°47' W 095°04'0 0.0
2018-Apr-12 17:30N 29°47' W 095°04'0 0.0
2018-Apr-12 16:57N 29°47' W 095°04'0 0.0
2018-Apr-12 16:30N 29°47' W 095°04'0 0.0
2018-Apr-12 15:50N 29°47' W 095°04'0 0.0
2018-Apr-12 15:30N 29°47' W 095°04'0 0.0
2018-Apr-12 14:59N 29°47' W 095°04'0 0.0
2018-Apr-12 14:25N 29°47' W 095°04'0 0.0
2018-Apr-12 13:58N 29°47' W 095°04'0 0.0
2018-Apr-12 13:03N 29°47' W 095°04'0 0.1
2018-Apr-12 12:59N 29°47' W 095°04'  
Track history (hours):
 
Tides and Currents Weather Stations Pressure Air Temp Water Temp Dewpoint Dewpoint Depression Visibility Wind Speed Wind Dir Waves Ship Positions

Jack Guidry

Owner: Enterprise Marine Services, LLC, San Antonio, TX. More information available from US FCC via Universal Licensing System and Coast Guard Vessel Documentation Center.

Last reported at 2018-Apr-22 12:46 UTC. Time now 2018-Apr-22 14:41 UTC.
Position N 29°47' W 095°05'.

Length 22 m; draft 3 m.

Type: . MMSI: 367003430.

Date/timePositionNaut miles runAvg speedWind from/ knotsBaromVisibWave heightAir tempDewpointWater temp
2018-Apr-22 12:46N 29°47' W 095°05'4 0.1
2018-Apr-20 22:47N 29°44' W 095°09'1 3.5
2018-Apr-20 22:26N 29°44' W 095°08'4 0.2
2018-Apr-19 21:53N 29°47' W 095°05'0 0.0
2018-Apr-19 21:30N 29°47' W 095°05'0 0.0
2018-Apr-18 17:41N 29°47' W 095°05'1 2.8
2018-Apr-18 17:19N 29°46' W 095°05'0 0.2
2018-Apr-18 16:42N 29°46' W 095°05'0 0.3
2018-Apr-18 16:30N 29°46' W 095°05'1 0.1
2018-Apr-18 04:59N 29°47' W 095°05'0 0.0
2018-Apr-18 02:45N 29°47' W 095°05'0 0.3
2018-Apr-18 02:27N 29°47' W 095°05'0 0.1
2018-Apr-18 02:00N 29°47' W 095°05'1 1.6
2018-Apr-18 01:26N 29°47' W 095°04'2 0.2
2018-Apr-17 12:52N 29°46' W 095°06'2 4.0
2018-Apr-17 12:27N 29°47' W 095°05'0 0.2
2018-Apr-17 10:58N 29°47' W 095°05'1 1.0
2018-Apr-17 10:23N 29°46' W 095°05'3 2.7
2018-Apr-17 09:27N 29°44' W 095°03'2 4.4
2018-Apr-17 08:59N 29°43' W 095°01'2 4.8
2018-Apr-17 08:30N 29°41' W 094°59'3 5.0
2018-Apr-17 07:59N 29°39' W 094°58'3 5.3
2018-Apr-17 07:30N 29°37' W 094°57'3 5.4
2018-Apr-17 07:00N 29°34' W 094°55'3 5.3
2018-Apr-17 06:30N 29°32' W 094°54'3 4.7
2018-Apr-17 05:56N 29°30' W 094°52'2 4.5
2018-Apr-17 05:30N 29°28' W 094°51'2 4.8
2018-Apr-17 05:00N 29°26' W 094°50'2 4.4
2018-Apr-17 04:29N 29°24' W 094°49'2 2.3
2018-Apr-17 03:38N 29°22' W 094°49'1 5.2
2018-Apr-17 03:29N 29°22' W 094°50'9 0.2
2018-Apr-15 11:42N 29°31' W 094°53'1 7.3
2018-Apr-15 11:30N 29°32' W 094°54'3 6.8
2018-Apr-15 11:00N 29°35' W 094°56'3 6.1
2018-Apr-15 10:30N 29°38' W 094°58'2 4.7
2018-Apr-15 10:00N 29°40' W 094°58'9 1.0
2018-Apr-15 00:41N 29°47' W 095°05'0 0.0
2018-Apr-15 00:30N 29°47' W 095°05'0 0.0
2018-Apr-14 23:52N 29°47' W 095°05'0 0.0
2018-Apr-14 18:40N 29°47' W 095°05'0 0.1
2018-Apr-14 18:30N 29°47' W 095°05'1 0.0
2018-Apr-13 18:47N 29°47' W 095°04'0 0.0
2018-Apr-13 18:29N 29°47' W 095°04'0 0.0
2018-Apr-13 17:59N 29°47' W 095°04'0 0.0
2018-Apr-13 15:56N 29°47' W 095°04'0 0.0
2018-Apr-13 15:29N 29°47' W 095°04'0 0.0
2018-Apr-13 13:42N 29°47' W 095°04'0 0.0
2018-Apr-13 07:20N 29°47' W 095°04'0 0.0
2018-Apr-13 06:20N 29°47' W 095°04'0 0.0
2018-Apr-13 05:56N 29°47' W 095°04'0 0.0
2018-Apr-13 05:29N 29°47' W 095°04'0 0.0
2018-Apr-13 05:00N 29°47' W 095°04'0 0.0
2018-Apr-13 04:25N 29°47' W 095°04'0 0.0
2018-Apr-13 03:54N 29°47' W 095°04'0 0.0
2018-Apr-13 03:29N 29°47' W 095°04'0 0.0
2018-Apr-13 02:03N 29°47' W 095°04'0 0.0
2018-Apr-13 01:58N 29°47' W 095°04'0 0.0
2018-Apr-13 00:32N 29°47' W 095°04'0 0.0
2018-Apr-13 00:22N 29°47' W 095°04'0 0.0
2018-Apr-12 20:32N 29°47' W 095°04'0 0.1
2018-Apr-12 20:28N 29°47' W 095°04'0 0.0
2018-Apr-12 19:58N 29°47' W 095°04'0 0.0
2018-Apr-12 19:17N 29°47' W 095°04'0 0.0
2018-Apr-12 18:58N 29°47' W 095°04'0 0.0
2018-Apr-12 18:30N 29°47' W 095°04'0 0.0
2018-Apr-12 17:59N 29°47' W 095°04'0 0.0
2018-Apr-12 17:30N 29°47' W 095°04'0 0.0
2018-Apr-12 16:57N 29°47' W 095°04'0 0.0
2018-Apr-12 16:30N 29°47' W 095°04'0 0.0
2018-Apr-12 15:50N 29°47' W 095°04'0 0.0
2018-Apr-12 15:30N 29°47' W 095°04'0 0.0
2018-Apr-12 14:59N 29°47' W 095°04'0 0.0
2018-Apr-12 14:25N 29°47' W 095°04'0 0.0
2018-Apr-12 13:58N 29°47' W 095°04'0 0.0
2018-Apr-12 13:03N 29°47' W 095°04'0 0.1
2018-Apr-12 12:59N 29°47' W 095°04'  

Dump ship's entire track history